createdAt,value
2023-05-10T00:01:33.604Z,67.44
2023-05-10T00:04:10.045Z,67.41
2023-05-10T00:06:46.363Z,67.43
2023-05-10T00:09:22.670Z,67.36
2023-05-10T00:11:59.729Z,67.32
2023-05-10T00:14:36.374Z,67.24
2023-05-10T00:17:12.708Z,67.28
2023-05-10T00:19:49.390Z,67.45
2023-05-10T00:22:25.902Z,67.66
2023-05-10T00:25:02.234Z,67.74
2023-05-10T00:27:38.939Z,67.77
2023-05-10T00:30:17.009Z,67.79
2023-05-10T00:32:53.749Z,68.09
2023-05-10T00:35:30.818Z,68.50
2023-05-10T00:38:07.260Z,68.67
2023-05-10T00:40:44.135Z,68.91
2023-05-10T00:43:25.500Z,69.11
2023-05-10T00:46:02.744Z,69.38
2023-05-10T00:48:39.211Z,69.53
2023-05-10T00:51:16.193Z,69.60
2023-05-10T00:53:53.391Z,69.69
2023-05-10T00:56:30.999Z,69.81
2023-05-10T00:59:07.620Z,69.78
2023-05-10T01:01:44.366Z,69.83
2023-05-10T01:04:26.562Z,69.85
2023-05-10T01:07:02.986Z,69.87
2023-05-10T01:09:39.654Z,69.86
2023-05-10T01:12:16.888Z,69.94
2023-05-10T01:14:53.787Z,69.97
2023-05-10T01:17:31.408Z,69.98
2023-05-10T01:20:10.182Z,70.04
2023-05-10T01:23:44.689Z,70.16
2023-05-10T01:26:52.399Z,70.32
2023-05-10T01:30:28.388Z,70.44
2023-05-10T01:33:15.691Z,70.62
2023-05-10T01:36:07.598Z,70.61
2023-05-10T01:38:52.578Z,70.76
2023-05-10T01:41:50.080Z,70.90
2023-05-10T01:44:37.847Z,70.94
2023-05-10T01:47:19.627Z,71.09
2023-05-10T01:50:02.210Z,71.17
2023-05-10T01:52:45.824Z,71.27
2023-05-10T01:55:27.565Z,71.37
2023-05-10T01:58:16.350Z,71.42
2023-05-10T02:00:56.723Z,71.37
2023-05-10T02:03:35.617Z,71.52
2023-05-10T02:06:17.406Z,71.63
2023-05-10T02:08:55.966Z,71.89
2023-05-10T02:11:34.486Z,71.99
2023-05-10T02:14:12.619Z,72.10
2023-05-10T02:16:50.405Z,72.10
2023-05-10T02:19:28.195Z,72.15
2023-05-10T02:22:09.368Z,72.24
2023-05-10T02:24:47.602Z,72.25
2023-05-10T02:27:25.405Z,72.34
2023-05-10T02:30:03.756Z,72.30
2023-05-10T02:32:41.929Z,72.30
2023-05-10T02:35:19.384Z,72.46
2023-05-10T02:37:57.168Z,72.51
2023-05-10T02:40:34.853Z,72.86
2023-05-10T02:43:23.923Z,73.02
2023-05-10T02:46:03.395Z,73.17
2023-05-10T02:48:40.283Z,73.30
2023-05-10T02:51:20.778Z,73.34
2023-05-10T02:54:03.666Z,73.36
2023-05-10T02:56:49.299Z,73.42
2023-05-10T02:59:25.898Z,73.33
2023-05-10T03:02:03.046Z,73.36
2023-05-10T03:04:39.478Z,73.41
2023-05-10T03:07:20.362Z,73.31
2023-05-10T03:09:57.862Z,73.37
2023-05-10T03:13:09.259Z,73.37
2023-05-10T03:16:01.590Z,73.32
2023-05-10T03:18:46.668Z,73.25
2023-05-10T03:21:28.159Z,73.19
2023-05-10T03:24:13.943Z,73.04
2023-05-10T03:26:51.790Z,72.90
2023-05-10T03:29:30.628Z,72.93
2023-05-10T03:32:07.730Z,72.83
2023-05-10T03:34:48.163Z,72.74
2023-05-10T03:37:24.603Z,72.70
2023-05-10T03:40:00.929Z,72.62
2023-05-10T03:42:39.053Z,71.99
2023-05-10T03:45:17.165Z,70.62
2023-05-10T03:47:53.608Z,69.22
2023-05-10T03:50:30.331Z,67.56
2023-05-10T03:53:06.742Z,65.72
2023-05-10T03:55:43.200Z,63.82
2023-05-10T03:58:19.556Z,62.16
2023-05-10T04:00:57.184Z,60.53
2023-05-10T04:03:33.761Z,58.92
2023-05-10T04:06:13.085Z,57.04
2023-05-10T04:08:49.451Z,55.73
2023-05-10T04:11:25.898Z,53.62
2023-05-10T04:14:02.192Z,53.18
2023-05-10T04:16:38.463Z,51.80
2023-05-10T04:19:15.354Z,50.89
2023-05-10T04:21:51.654Z,49.96
2023-05-10T04:24:28.066Z,49.66
2023-05-10T04:27:04.343Z,48.27
2023-05-10T04:29:40.722Z,47.77
2023-05-10T04:32:18.208Z,47.27
2023-05-10T04:34:54.660Z,45.99
2023-05-10T04:37:30.870Z,45.38
2023-05-10T04:40:09.302Z,45.07
2023-05-10T04:42:51.855Z,44.33
2023-05-10T04:45:28.771Z,43.86
2023-05-10T04:48:05.903Z,43.66
2023-05-10T04:50:43.114Z,43.38
2023-05-10T04:53:20.190Z,42.50
2023-05-10T04:55:56.561Z,42.61
2023-05-10T04:58:32.753Z,41.76
2023-05-10T05:01:13.801Z,42.12
2023-05-10T05:03:50.039Z,42.00
2023-05-10T05:06:28.402Z,41.53
2023-05-10T05:09:05.201Z,40.70
2023-05-10T05:11:42.738Z,40.78
2023-05-10T05:14:19.225Z,40.24
2023-05-10T05:16:56.914Z,40.19
2023-05-10T05:19:34.717Z,40.59
2023-05-10T05:22:12.095Z,40.28
2023-05-10T05:24:48.937Z,40.21
2023-05-10T05:27:27.382Z,39.83
2023-05-10T05:30:05.262Z,39.35
2023-05-10T05:32:42.487Z,38.97
2023-05-10T05:35:20.037Z,39.48
2023-05-10T05:37:57.460Z,38.97
2023-05-10T05:40:34.891Z,38.60
2023-05-10T05:43:12.312Z,37.77
2023-05-10T05:45:52.032Z,38.26
2023-05-10T05:48:31.756Z,37.44
2023-05-10T05:51:08.931Z,37.47
2023-05-10T05:53:48.799Z,37.07
2023-05-10T05:56:26.738Z,36.77
2023-05-10T05:59:04.735Z,36.79
2023-05-10T06:01:41.894Z,36.93
2023-05-10T06:04:20.651Z,37.04
2023-05-10T06:06:57.632Z,36.39
2023-05-10T06:09:34.562Z,35.95
2023-05-10T06:12:13.917Z,35.46
2023-05-10T06:14:50.822Z,35.23
2023-05-10T06:17:28.682Z,35.04
2023-05-10T06:20:06.289Z,35.13
2023-05-10T06:22:43.092Z,34.38
2023-05-10T06:25:20.591Z,34.22
2023-05-10T06:27:58.936Z,34.40
2023-05-10T06:30:35.709Z,33.91
2023-05-10T06:33:12.633Z,33.84
2023-05-10T06:35:49.530Z,34.51
2023-05-10T06:38:25.984Z,33.52
2023-05-10T06:41:02.879Z,33.69
2023-05-10T06:43:41.002Z,33.24
2023-05-10T06:46:17.647Z,33.48
2023-05-10T06:48:54.195Z,34.04
2023-05-10T06:51:30.865Z,33.42
2023-05-10T06:54:08.053Z,33.64
2023-05-10T06:56:44.263Z,33.06
2023-05-10T06:59:22.728Z,33.29
2023-05-10T07:01:59.361Z,33.47
2023-05-10T07:04:36.211Z,33.10
2023-05-10T07:07:12.747Z,33.52
2023-05-10T07:09:50.718Z,33.21
2023-05-10T07:12:27.293Z,33.40
2023-05-10T07:15:04.090Z,33.69
2023-05-10T07:17:43.114Z,33.93
2023-05-10T07:20:21.360Z,34.01
2023-05-10T07:22:58.207Z,34.80
2023-05-10T07:25:35.012Z,34.31
2023-05-10T07:28:15.288Z,33.35
2023-05-10T07:30:51.994Z,33.04
2023-05-10T07:33:28.868Z,33.46
2023-05-10T07:36:05.266Z,33.43
2023-05-10T07:38:41.866Z,33.29
2023-05-10T07:41:18.253Z,34.33
2023-05-10T07:46:00.823Z,37.45
2023-05-10T07:48:37.827Z,37.69
2023-05-10T07:51:14.746Z,36.64
2023-05-10T07:53:51.345Z,36.11
2023-05-10T07:56:34.131Z,35.58
2023-05-10T07:59:12.670Z,34.34
2023-05-10T08:01:50.297Z,32.85
2023-05-10T08:04:27.410Z,32.66
2023-05-10T08:07:04.039Z,33.16
2023-05-10T08:09:40.412Z,33.02
2023-05-10T08:12:16.851Z,32.36
2023-05-10T08:14:53.228Z,32.82
2023-05-10T08:17:29.803Z,33.55
2023-05-10T08:20:08.853Z,33.11
2023-05-10T08:22:45.146Z,32.33
2023-05-10T08:25:21.723Z,31.66
2023-05-10T08:27:58.142Z,32.44
2023-05-10T08:30:34.638Z,32.64
2023-05-10T08:33:10.903Z,32.64
2023-05-10T08:35:47.152Z,32.50
2023-05-10T08:38:25.948Z,31.82
2023-05-10T08:41:04.262Z,32.27
2023-05-10T08:43:42.605Z,32.19
2023-05-10T08:46:22.738Z,32.42
2023-05-10T08:49:00.606Z,32.36
2023-05-10T08:51:43.911Z,32.13
2023-05-10T08:54:20.704Z,31.68
2023-05-10T08:56:57.724Z,31.79
2023-05-10T08:59:34.503Z,32.26
2023-05-10T09:02:14.796Z,31.34
2023-05-10T09:04:53.218Z,32.09
2023-05-10T09:07:30.849Z,32.45
2023-05-10T09:10:10.906Z,32.83
2023-05-10T09:12:50.051Z,32.60
2023-05-10T09:15:27.219Z,32.76
2023-05-10T09:18:04.858Z,32.67
2023-05-10T09:20:41.405Z,32.75
2023-05-10T09:23:18.340Z,32.96
2023-05-10T09:26:07.884Z,32.97
2023-05-10T09:28:59.188Z,33.45
2023-05-10T09:34:41.147Z,32.72
2023-05-10T09:37:17.635Z,32.65
2023-05-10T09:40:00.135Z,33.27
2023-05-10T09:42:37.194Z,33.44
2023-05-10T09:45:15.499Z,33.36
2023-05-10T09:47:52.877Z,33.29
2023-05-10T09:50:30.920Z,33.17
2023-05-10T09:53:09.015Z,33.44
2023-05-10T09:55:51.986Z,33.56
2023-05-10T09:58:28.558Z,33.81
2023-05-10T10:01:05.660Z,33.47
2023-05-10T10:03:47.459Z,33.23
2023-05-10T10:06:30.462Z,33.53
2023-05-10T10:09:08.665Z,33.22
2023-05-10T10:11:46.015Z,33.61
2023-05-10T10:14:24.179Z,33.57
2023-05-10T10:19:43.733Z,33.53
2023-05-10T10:22:20.879Z,32.94
2023-05-10T10:24:58.402Z,33.59
2023-05-10T10:27:50.999Z,33.95
2023-05-10T10:30:38.575Z,34.54
2023-05-10T10:34:06.421Z,34.73
2023-05-10T10:36:50.997Z,34.53
2023-05-10T10:39:28.827Z,34.11
2023-05-10T10:42:07.164Z,34.04
2023-05-10T10:44:47.007Z,34.01
2023-05-10T10:47:34.444Z,34.42
2023-05-10T10:50:14.109Z,34.17
2023-05-10T10:52:55.026Z,34.12
2023-05-10T10:55:32.193Z,34.17
2023-05-10T10:58:09.905Z,34.11
2023-05-10T11:00:46.987Z,33.55
2023-05-10T11:03:24.799Z,33.89
2023-05-10T11:06:05.225Z,33.94
2023-05-10T11:08:49.243Z,34.01
2023-05-10T11:11:26.612Z,34.15
2023-05-10T11:14:09.173Z,33.93
2023-05-10T11:16:52.150Z,34.31
2023-05-10T11:19:32.643Z,34.21
2023-05-10T11:22:21.594Z,34.47
2023-05-10T11:25:05.141Z,33.92
2023-05-10T11:27:44.180Z,33.77
2023-05-10T11:30:21.762Z,33.45
2023-05-10T11:32:58.612Z,33.87
2023-05-10T11:35:41.004Z,34.00
2023-05-10T11:38:19.558Z,33.77
2023-05-10T11:40:57.416Z,33.39
2023-05-10T11:43:34.196Z,33.40
2023-05-10T11:46:13.438Z,33.70
2023-05-10T11:48:54.117Z,33.91
2023-05-10T11:51:31.426Z,33.64
2023-05-10T11:54:12.732Z,34.07
2023-05-10T11:56:49.367Z,33.92
2023-05-10T11:59:27.340Z,33.83
2023-05-10T12:02:04.385Z,33.76
2023-05-10T12:04:42.452Z,34.00
2023-05-10T12:07:19.645Z,33.84
2023-05-10T12:10:16.623Z,33.30
2023-05-10T12:12:55.913Z,33.37
2023-05-10T12:15:33.141Z,33.80
2023-05-10T12:18:12.672Z,33.67
2023-05-10T12:20:49.322Z,33.74
2023-05-10T12:23:26.051Z,33.89
2023-05-10T12:26:11.932Z,34.37
2023-05-10T12:28:49.150Z,34.67
2023-05-10T12:31:25.821Z,34.45
2023-05-10T12:34:02.418Z,34.25
2023-05-10T12:36:44.254Z,34.35
2023-05-10T12:39:20.979Z,34.11
2023-05-10T12:41:57.850Z,33.64
2023-05-10T12:44:34.405Z,33.80
2023-05-10T12:47:11.840Z,34.49
2023-05-10T12:49:49.125Z,33.98
2023-05-10T12:52:25.865Z,34.01
2023-05-10T12:55:04.163Z,34.27
2023-05-10T12:57:40.898Z,34.26
2023-05-10T13:00:20.827Z,34.24
2023-05-10T13:02:57.981Z,33.06
2023-05-10T13:05:35.129Z,33.38
2023-05-10T13:08:12.140Z,33.53
2023-05-10T13:10:48.752Z,33.37
2023-05-10T13:13:25.879Z,33.54
2023-05-10T13:16:02.747Z,33.29
2023-05-10T13:18:39.433Z,33.97
2023-05-10T13:21:16.376Z,33.96
2023-05-10T13:23:53.275Z,33.90
2023-05-10T13:26:30.419Z,33.58
2023-05-10T13:29:07.535Z,33.57
2023-05-10T13:31:44.743Z,33.52
2023-05-10T13:34:22.379Z,33.97
2023-05-10T13:36:59.412Z,34.12
2023-05-10T13:39:38.405Z,33.79
2023-05-10T13:42:15.478Z,33.63
2023-05-10T13:44:52.402Z,33.45
2023-05-10T13:47:28.849Z,33.71
2023-05-10T13:50:05.558Z,33.30
2023-05-10T13:52:42.050Z,33.66
2023-05-10T13:55:19.447Z,33.82
2023-05-10T13:57:56.404Z,33.70
2023-05-10T14:00:33.194Z,34.17
2023-05-10T14:03:12.439Z,34.32
2023-05-10T14:05:49.596Z,33.99
2023-05-10T14:08:28.118Z,34.20
2023-05-10T14:11:05.041Z,34.03
2023-05-10T14:13:42.009Z,33.90
2023-05-10T14:16:18.907Z,33.88
2023-05-10T14:18:56.308Z,34.02
2023-05-10T14:21:35.707Z,33.91
2023-05-10T14:24:13.145Z,34.19
2023-05-10T14:26:49.693Z,34.75
2023-05-10T14:29:27.118Z,34.39
2023-05-10T14:32:04.003Z,34.24
2023-05-10T14:34:40.747Z,33.97
2023-05-10T14:37:20.168Z,34.20
2023-05-10T14:39:57.216Z,34.09
2023-05-10T14:42:33.744Z,34.30
2023-05-10T14:45:13.247Z,34.17
2023-05-10T14:47:49.611Z,33.93
2023-05-10T14:50:36.619Z,34.09
2023-05-10T14:53:15.340Z,34.02
2023-05-10T14:55:51.954Z,34.19
2023-05-10T14:58:29.049Z,34.16
2023-05-10T15:01:06.464Z,34.41
2023-05-10T15:03:43.832Z,34.43
2023-05-10T15:06:25.307Z,34.35
2023-05-10T15:09:02.434Z,34.11
2023-05-10T15:11:39.833Z,34.21
2023-05-10T15:14:16.628Z,34.25
2023-05-10T15:16:53.220Z,34.24
2023-05-10T15:19:30.739Z,34.21
2023-05-10T15:22:08.015Z,34.12
2023-05-10T15:24:44.357Z,33.97
2023-05-10T15:27:20.864Z,33.95
2023-05-10T15:29:57.983Z,34.10
2023-05-10T15:32:34.368Z,34.10
2023-05-10T15:35:13.490Z,34.14
2023-05-10T15:37:51.404Z,34.77
2023-05-10T15:40:28.381Z,35.12
2023-05-10T15:43:06.334Z,35.32
2023-05-10T15:45:42.704Z,34.71
2023-05-10T15:48:19.479Z,35.02
2023-05-10T15:50:58.177Z,34.85
2023-05-10T15:53:34.927Z,35.05
2023-05-10T15:56:12.624Z,34.52
2023-05-10T15:58:49.902Z,34.81
2023-05-10T16:01:26.498Z,34.88
2023-05-10T16:04:03.031Z,34.53
2023-05-10T16:06:40.118Z,34.47
2023-05-10T16:09:16.868Z,34.56
2023-05-10T16:11:53.560Z,35.20
2023-05-10T16:14:30.558Z,35.13
2023-05-10T16:17:07.958Z,35.46
2023-05-10T16:19:44.695Z,35.57
2023-05-10T16:22:22.480Z,35.41
2023-05-10T16:25:00.290Z,35.01
2023-05-10T16:27:36.700Z,34.97
2023-05-10T16:30:15.478Z,35.11
2023-05-10T16:32:52.161Z,35.14
2023-05-10T16:35:29.961Z,35.46
2023-05-10T16:38:07.059Z,35.55
2023-05-10T16:40:43.819Z,35.56
2023-05-10T16:43:20.495Z,36.09
2023-05-10T16:45:56.957Z,36.21
2023-05-10T16:48:33.630Z,36.18
2023-05-10T16:51:10.882Z,36.12
2023-05-10T16:53:47.976Z,35.81
2023-05-10T16:56:24.575Z,36.17
2023-05-10T16:59:01.564Z,36.89
2023-05-10T17:01:40.191Z,37.12
2023-05-10T17:04:18.568Z,36.97
2023-05-10T17:06:55.411Z,36.86
2023-05-10T17:09:32.350Z,36.93
2023-05-10T17:12:08.977Z,37.12
2023-05-10T17:14:45.873Z,37.52
2023-05-10T17:17:23.613Z,38.10
2023-05-10T17:20:00.886Z,38.44
2023-05-10T17:22:37.713Z,38.49
2023-05-10T17:25:21.715Z,38.88
2023-05-10T17:27:58.574Z,38.83
2023-05-10T17:30:36.127Z,38.87
2023-05-10T17:33:12.982Z,38.94
2023-05-10T17:35:52.767Z,39.29
2023-05-10T17:38:29.878Z,39.45
2023-05-10T17:41:06.775Z,39.96
2023-05-10T17:43:43.544Z,40.80
2023-05-10T17:46:20.445Z,41.44
2023-05-10T17:48:57.218Z,41.47
2023-05-10T17:51:34.550Z,41.76
2023-05-10T17:54:11.375Z,41.76
2023-05-10T17:56:48.191Z,41.63
2023-05-10T17:59:24.995Z,41.87
2023-05-10T18:02:01.705Z,42.07
2023-05-10T18:04:40.512Z,42.02
2023-05-10T18:07:18.772Z,42.26
2023-05-10T18:09:55.801Z,42.80
2023-05-10T18:12:32.979Z,43.12
2023-05-10T18:15:12.425Z,43.38
2023-05-10T18:17:50.493Z,43.77
2023-05-10T18:20:28.899Z,43.84
2023-05-10T18:23:09.208Z,43.98
2023-05-10T18:25:45.990Z,44.20
2023-05-10T18:28:24.639Z,44.32
2023-05-10T18:31:01.699Z,44.38
2023-05-10T18:33:39.281Z,44.59
2023-05-10T18:36:16.907Z,44.92
2023-05-10T18:38:54.109Z,44.98
2023-05-10T18:41:30.914Z,45.13
2023-05-10T18:44:08.259Z,45.01
2023-05-10T18:46:47.441Z,45.05
2023-05-10T18:49:25.656Z,44.98
2023-05-10T18:52:03.665Z,45.06
2023-05-10T18:54:41.498Z,45.09
2023-05-10T18:57:24.128Z,45.30
2023-05-10T19:00:01.482Z,45.52
2023-05-10T19:02:39.065Z,45.68
2023-05-10T19:05:17.422Z,45.93
2023-05-10T19:07:57.138Z,45.94
2023-05-10T19:10:39.428Z,46.19
2023-05-10T19:13:17.639Z,46.28
2023-05-10T19:16:15.230Z,46.48
2023-05-10T19:18:55.830Z,46.69
2023-05-10T19:21:34.461Z,46.69
2023-05-10T19:24:15.085Z,47.07
2023-05-10T19:26:52.700Z,47.08
2023-05-10T19:29:30.996Z,47.31
2023-05-10T19:32:08.427Z,47.45
2023-05-10T19:34:46.678Z,47.64
2023-05-10T19:37:25.627Z,47.79
2023-05-10T19:40:05.273Z,47.94
2023-05-10T19:42:42.899Z,48.20
2023-05-10T19:45:24.347Z,48.60
2023-05-10T19:48:03.167Z,48.81
2023-05-10T19:50:43.957Z,49.10
2023-05-10T19:53:21.955Z,49.29
2023-05-10T19:56:07.711Z,49.52
2023-05-10T19:58:46.161Z,49.74
2023-05-10T20:01:26.204Z,49.96
2023-05-10T20:04:04.168Z,50.14
2023-05-10T20:06:41.508Z,50.17
2023-05-10T20:09:20.077Z,50.24
2023-05-10T20:11:57.334Z,50.37
2023-05-10T20:14:34.788Z,50.27
2023-05-10T20:17:12.079Z,50.34
2023-05-10T20:19:49.595Z,50.45
2023-05-10T20:22:26.364Z,50.50
2023-05-10T20:25:03.038Z,50.61
2023-05-10T20:27:40.216Z,50.58
2023-05-10T20:30:19.248Z,50.64
2023-05-10T20:32:56.337Z,50.79
2023-05-10T20:35:34.392Z,50.90
2023-05-10T20:38:11.753Z,51.03
2023-05-10T20:40:49.166Z,51.16
2023-05-10T20:43:26.135Z,51.25
2023-05-10T20:46:05.610Z,51.49
2023-05-10T20:48:42.622Z,51.58
2023-05-10T20:51:20.236Z,51.82
2023-05-10T20:53:57.244Z,52.04
2023-05-10T20:56:35.069Z,52.17
2023-05-10T20:59:12.117Z,52.44
2023-05-10T21:01:49.097Z,52.79
2023-05-10T21:04:25.836Z,53.01
2023-05-10T21:07:02.853Z,53.23
2023-05-10T21:09:39.717Z,53.51
2023-05-10T21:12:16.724Z,54.04
2023-05-10T21:14:53.777Z,54.12
2023-05-10T21:17:31.205Z,54.38
2023-05-10T21:20:09.884Z,54.52
2023-05-10T21:22:46.386Z,54.75
2023-05-10T21:25:25.432Z,55.05
2023-05-10T21:28:27.674Z,55.11
2023-05-10T21:31:04.312Z,55.31
2023-05-10T21:33:40.862Z,55.47
2023-05-10T21:36:17.503Z,55.67
2023-05-10T21:38:54.064Z,55.85
2023-05-10T21:41:30.491Z,55.93
2023-05-10T21:44:06.984Z,56.13
2023-05-10T21:46:44.456Z,56.23
2023-05-10T21:49:20.835Z,56.42
2023-05-10T21:51:57.132Z,56.56
2023-05-10T21:54:34.449Z,56.55
2023-05-10T21:57:10.878Z,56.64
2023-05-10T21:59:47.539Z,56.72
2023-05-10T22:02:23.858Z,56.82
2023-05-10T22:05:00.257Z,56.85
2023-05-10T22:07:36.958Z,56.85
2023-05-10T22:10:15.219Z,57.02
2023-05-10T22:12:51.732Z,57.12
2023-05-10T22:15:28.569Z,57.21
2023-05-10T22:18:05.463Z,57.18
2023-05-10T22:20:42.103Z,57.25
2023-05-10T22:23:18.794Z,57.41
2023-05-10T22:25:55.003Z,57.38
2023-05-10T22:28:31.747Z,57.41
2023-05-10T22:31:12.227Z,57.46
2023-05-10T22:33:48.903Z,57.49
2023-05-10T22:36:25.333Z,57.49
2023-05-10T22:39:01.807Z,57.44
2023-05-10T22:41:38.598Z,57.41
2023-05-10T22:44:14.992Z,57.50
2023-05-10T22:46:52.027Z,57.62
2023-05-10T22:49:28.726Z,57.60
2023-05-10T22:52:05.200Z,57.84
2023-05-10T22:54:41.581Z,57.79
2023-05-10T22:57:18.035Z,57.92
2023-05-10T22:59:55.021Z,57.96
2023-05-10T23:02:31.751Z,57.96
2023-05-10T23:05:10.852Z,58.13
2023-05-10T23:07:50.435Z,58.27
2023-05-10T23:10:27.203Z,58.25
2023-05-10T23:13:04.067Z,58.27
2023-05-10T23:15:40.486Z,58.31
2023-05-10T23:18:16.993Z,58.45
2023-05-10T23:20:54.167Z,58.63
2023-05-10T23:23:31.148Z,58.73
2023-05-10T23:26:08.907Z,58.98
2023-05-10T23:28:45.240Z,58.96
2023-05-10T23:31:21.685Z,58.96
2023-05-10T23:33:58.141Z,58.99
2023-05-10T23:36:34.445Z,59.15
2023-05-10T23:39:12.038Z,59.16
2023-05-10T23:41:48.463Z,59.33
2023-05-10T23:44:24.911Z,59.46
2023-05-10T23:47:01.164Z,59.60
2023-05-10T23:49:38.245Z,59.61
2023-05-10T23:52:14.647Z,59.58
2023-05-10T23:54:51.030Z,59.73
2023-05-10T23:57:27.342Z,59.83
